createdAt,value
2016-04-04T00:00:42.203Z,10.45
2016-04-04T00:01:42.206Z,10.4
2016-04-04T00:02:42.239Z,10.42
2016-04-04T00:03:56.526Z,10.41
2016-04-04T00:04:42.448Z,10.38
2016-04-04T00:05:42.467Z,10.33
2016-04-04T00:06:42.281Z,10.41
2016-04-04T00:07:56.771Z,10.41
2016-04-04T00:08:42.256Z,10.42
2016-04-04T00:09:42.273Z,10.34
2016-04-04T00:10:42.245Z,10.3
2016-04-04T00:11:42.248Z,10.3
2016-04-04T00:12:42.251Z,10.36
2016-04-04T00:13:42.269Z,10.32
2016-04-04T00:14:42.272Z,10.3
2016-04-04T00:15:42.259Z,10.4
2016-04-04T00:16:42.653Z,10.29
2016-04-04T00:17:42.280Z,10.26
2016-04-04T00:18:42.469Z,10.25
2016-04-04T00:19:42.316Z,10.29
2016-04-04T00:20:42.288Z,10.22
2016-04-04T00:21:42.525Z,10.26
2016-04-04T00:22:42.309Z,10.22
2016-04-04T00:23:42.311Z,10.22
2016-04-04T00:24:42.705Z,10.3
2016-04-04T00:25:42.301Z,10.22
2016-04-04T00:26:42.538Z,10.23
2016-04-04T00:27:42.322Z,10.22
2016-04-04T00:28:42.497Z,10.23
2016-04-04T00:29:42.312Z,10.18
2016-04-04T00:30:42.299Z,10.09
2016-04-04T00:31:43.286Z,10.2
2016-04-04T00:32:42.570Z,10.07
2016-04-04T00:33:42.088Z,10.15
2016-04-04T00:34:42.388Z,10.18
2016-04-04T00:35:42.750Z,10.08
2016-04-04T00:36:42.550Z,10.23
2016-04-04T00:37:56.445Z,10.15
2016-04-04T00:38:41.883Z,10.05
2016-04-04T00:39:42.402Z,10.08
2016-04-04T00:40:42.622Z,10.17
2016-04-04T00:42:42.394Z,10.18
2016-04-04T00:43:42.364Z,10.05
2016-04-04T00:44:42.399Z,10.05
2016-04-04T00:45:56.530Z,10.02
2016-04-04T00:46:42.389Z,10.05
2016-04-04T00:47:42.392Z,10.07
2016-04-04T00:48:42.582Z,10.02
2016-04-04T00:49:42.413Z,10.04
2016-04-04T00:50:42.383Z,10.08
2016-04-04T00:51:42.402Z,10.02
2016-04-04T00:52:42.405Z,9.94
2016-04-04T00:53:42.408Z,9.99
2016-04-04T00:54:42.410Z,9.94
2016-04-04T00:55:42.413Z,10.05
2016-04-04T00:56:42.619Z,9.96
2016-04-04T00:57:42.435Z,10.01
2016-04-04T00:58:42.421Z,10.02
2016-04-04T00:59:42.658Z,10.01
2016-04-04T01:00:42.457Z,10.07
2016-04-04T01:01:42.429Z,10.02
2016-04-04T01:02:41.963Z,10.02
2016-04-04T01:03:41.951Z,10.02
2016-04-04T01:04:42.516Z,9.99
2016-04-04T01:05:42.456Z,9.99
2016-04-04T01:06:42.662Z,10.12
2016-04-04T01:07:42.462Z,10.01
2016-04-04T01:08:41.996Z,9.99
2016-04-04T01:09:42.857Z,9.93
2016-04-04T01:10:42.454Z,9.97
2016-04-04T01:11:42.473Z,10.08
2016-04-04T01:12:42.490Z,9.99
2016-04-04T01:13:56.571Z,10.01
2016-04-04T01:14:42.480Z,10.02
2016-04-04T01:15:42.483Z,9.97
2016-04-04T01:16:42.486Z,10.02
2016-04-04T01:17:42.503Z,9.97
2016-04-04T01:18:42.725Z,10.04
2016-04-04T01:19:42.744Z,9.97
2016-04-04T01:20:42.714Z,9.93
2016-04-04T01:21:42.499Z,10.07
2016-04-04T01:22:42.533Z,10.02
2016-04-04T01:23:42.505Z,10.07
2016-04-04T01:24:42.945Z,9.97
2016-04-04T01:25:42.510Z,9.97
2016-04-04T01:26:57.013Z,9.96
2016-04-04T01:27:42.749Z,9.96
2016-04-04T01:28:42.518Z,9.94
2016-04-04T01:29:42.738Z,9.96
2016-04-04T01:30:42.757Z,9.93
2016-04-04T01:31:42.573Z,9.96
2016-04-04T01:32:42.763Z,9.94
2016-04-04T01:33:42.547Z,10.01
2016-04-04T01:34:42.893Z,9.97
2016-04-04T01:35:42.771Z,9.97
2016-04-04T01:36:42.571Z,9.94
2016-04-04T01:37:42.558Z,9.96
2016-04-04T01:38:42.592Z,9.9
2016-04-04T01:39:42.813Z,9.93
2016-04-04T01:40:42.598Z,9.83
2016-04-04T01:41:56.896Z,9.9
2016-04-04T01:42:42.571Z,9.86
2016-04-04T01:43:42.480Z,9.87
2016-04-04T01:44:42.576Z,9.9
2016-04-04T01:45:42.579Z,9.87
2016-04-04T01:46:42.784Z,9.79
2016-04-04T01:48:42.805Z,9.83
2016-04-04T01:49:42.636Z,9.81
2016-04-04T01:50:42.624Z,9.86
2016-04-04T01:52:42.597Z,9.86
2016-04-04T01:53:42.803Z,9.81
2016-04-04T01:54:42.602Z,9.81
2016-04-04T01:55:43.058Z,9.81
2016-04-04T01:56:42.655Z,9.81
2016-04-04T01:57:42.830Z,9.83
2016-04-04T01:58:42.832Z,9.79
2016-04-04T01:59:42.632Z,9.79
2016-04-04T02:00:42.624Z,9.81
2016-04-04T02:01:42.658Z,9.72
2016-04-04T02:02:42.630Z,9.81
2016-04-04T02:03:42.648Z,9.79
2016-04-04T02:04:56.948Z,9.75
2016-04-04T02:05:56.950Z,9.78
2016-04-04T02:06:42.859Z,9.87
2016-04-04T02:07:42.674Z,9.81
2016-04-04T02:08:42.676Z,9.74
2016-04-04T02:09:42.648Z,9.71
2016-04-04T02:10:42.651Z,9.75
2016-04-04T02:11:42.670Z,9.71
2016-04-04T02:12:42.656Z,9.75
2016-04-04T02:13:42.675Z,9.66
2016-04-04T02:14:42.678Z,9.74
2016-04-04T02:15:42.681Z,9.64
2016-04-04T02:16:42.917Z,9.65
2016-04-04T02:17:42.686Z,9.69
2016-04-04T02:18:42.219Z,9.68
2016-04-04T02:19:42.863Z,9.71
2016-04-04T02:20:42.694Z,9.71
2016-04-04T02:21:42.900Z,9.72
2016-04-04T02:22:42.903Z,9.65
2016-04-04T02:23:42.702Z,9.72
2016-04-04T02:24:43.111Z,9.65
2016-04-04T02:25:42.707Z,9.68
2016-04-04T02:26:42.210Z,9.68
2016-04-04T02:27:42.916Z,9.72
2016-04-04T02:28:42.247Z,9.53
2016-04-04T02:29:42.718Z,9.56
2016-04-04T02:30:42.736Z,9.54
2016-04-04T02:31:42.927Z,9.57
2016-04-04T02:32:43.210Z,9.58
2016-04-04T02:34:42.904Z,9.57
2016-04-04T02:35:42.734Z,9.54
2016-04-04T02:36:42.737Z,9.5
2016-04-04T02:37:42.959Z,9.51
2016-04-04T02:38:42.757Z,9.51
2016-04-04T02:39:42.745Z,9.56
2016-04-04T02:40:42.763Z,9.51
2016-04-04T02:41:42.969Z,9.5
2016-04-04T02:42:42.768Z,9.51
2016-04-04T02:43:42.990Z,9.46
2016-04-04T02:44:43.931Z,9.42
2016-04-04T02:45:42.980Z,9.5
2016-04-04T02:46:42.779Z,9.48
2016-04-04T02:47:43.189Z,9.46
2016-04-04T02:48:42.784Z,9.5
2016-04-04T02:49:43.006Z,9.46
2016-04-04T02:50:42.993Z,9.42
2016-04-04T02:51:42.792Z,9.43
2016-04-04T02:52:42.811Z,9.4
2016-04-04T02:53:42.797Z,9.42
2016-04-04T02:54:42.800Z,9.38
2016-04-04T02:55:42.319Z,9.4
2016-04-04T02:56:57.321Z,9.42
2016-04-04T02:57:57.309Z,9.38
2016-04-04T02:58:43.265Z,9.38
2016-04-04T02:59:42.799Z,9.36
2016-04-04T03:00:42.816Z,9.36
2016-04-04T03:01:42.805Z,9.32
2016-04-04T03:02:42.838Z,9.32
2016-04-04T03:03:42.824Z,9.36
2016-04-04T03:04:43.141Z,9.29
2016-04-04T03:05:42.846Z,9.26
2016-04-04T03:06:43.021Z,9.29
2016-04-04T03:07:43.047Z,9.21
2016-04-04T03:08:43.691Z,9.17
2016-04-04T03:09:42.835Z,9.18
2016-04-04T03:10:42.837Z,9.18
2016-04-04T03:11:42.855Z,9.26
2016-04-04T03:12:42.843Z,9.29
2016-04-04T03:13:42.860Z,9.18
2016-04-04T03:14:42.895Z,9.17
2016-04-04T03:15:42.866Z,9.21
2016-04-04T03:16:42.571Z,9.26
2016-04-04T03:17:42.871Z,9.13
2016-04-04T03:18:43.109Z,9.17
2016-04-04T03:19:43.221Z,9.18
2016-04-04T03:20:42.395Z,9.11
2016-04-04T03:21:43.070Z,9.15
2016-04-04T03:22:43.104Z,9.17
2016-04-04T03:23:43.184Z,9.11
2016-04-04T03:24:43.109Z,9.17
2016-04-04T03:25:42.893Z,9.14
2016-04-04T03:26:42.880Z,9.08
2016-04-04T03:27:42.898Z,9.08
2016-04-04T03:28:43.198Z,9.1
2016-04-04T03:29:43.325Z,9.04
2016-04-04T03:30:42.938Z,9.17
2016-04-04T03:31:43.097Z,9.14
2016-04-04T03:32:42.896Z,9.02
2016-04-04T03:33:43.352Z,8.95
2016-04-04T03:34:43.058Z,8.95
2016-04-04T03:35:43.311Z,8.98
2016-04-04T03:36:43.329Z,9.01
2016-04-04T03:37:42.910Z,8.92
2016-04-04T03:38:42.913Z,9.01
2016-04-04T03:39:57.213Z,8.99
2016-04-04T03:40:57.011Z,9.01
2016-04-04T03:41:42.920Z,9.01
2016-04-04T03:42:42.924Z,8.96
2016-04-04T03:43:42.941Z,8.95
2016-04-04T03:44:57.053Z,8.95
2016-04-04T03:45:42.947Z,8.91
2016-04-04T03:46:42.935Z,8.89
2016-04-04T03:47:42.937Z,8.91
2016-04-04T03:48:42.939Z,8.92
2016-04-04T03:49:43.286Z,8.95
2016-04-04T03:50:42.960Z,8.8
2016-04-04T03:51:42.962Z,8.95
2016-04-04T03:52:42.981Z,8.89
2016-04-04T03:53:42.984Z,8.84
2016-04-04T03:56:42.961Z,8.89
2016-04-04T03:57:42.995Z,8.96
2016-04-04T03:58:43.389Z,8.87
2016-04-04T03:59:43.000Z,8.86
2016-04-04T04:00:42.987Z,8.95
2016-04-04T04:01:43.193Z,8.91
2016-04-04T04:02:42.992Z,8.87
2016-04-04T04:03:43.011Z,8.94
2016-04-04T04:04:43.311Z,8.87
2016-04-04T04:05:42.969Z,8.86
2016-04-04T04:06:42.989Z,8.91
2016-04-04T04:07:57.101Z,8.76
2016-04-04T04:08:43.134Z,8.8
2016-04-04T04:09:43.106Z,8.86
2016-04-04T04:10:42.984Z,8.89
2016-04-04T04:11:43.017Z,8.83
2016-04-04T04:12:43.208Z,8.86
2016-04-04T04:13:42.992Z,8.79
2016-04-04T04:14:56.636Z,8.8
2016-04-04T04:15:43.013Z,8.8
2016-04-04T04:16:43.641Z,8.8
2016-04-04T04:17:43.034Z,8.81
2016-04-04T04:18:43.005Z,8.83
2016-04-04T04:19:43.274Z,8.8
2016-04-04T04:20:43.213Z,8.73
2016-04-04T04:21:43.045Z,8.77
2016-04-04T04:22:43.063Z,8.79
2016-04-04T04:23:43.034Z,8.76
2016-04-04T04:24:43.038Z,8.76
2016-04-04T04:25:43.024Z,8.77
2016-04-04T04:26:43.027Z,8.81
2016-04-04T04:27:43.029Z,8.77
2016-04-04T04:28:43.033Z,8.8
2016-04-04T04:29:43.066Z,8.79
2016-04-04T04:30:43.084Z,8.8
2016-04-04T04:31:43.446Z,8.79
2016-04-04T04:32:43.042Z,8.8
2016-04-04T04:33:43.046Z,8.81
2016-04-04T04:34:42.392Z,8.8
2016-04-04T04:35:43.254Z,8.89
2016-04-04T04:36:43.070Z,8.87
2016-04-04T04:37:43.072Z,8.89
2016-04-04T04:38:43.278Z,8.84
2016-04-04T04:39:43.920Z,8.94
2016-04-04T04:40:43.081Z,8.94
2016-04-04T04:41:43.051Z,8.84
2016-04-04T04:42:43.070Z,8.92
2016-04-04T04:43:43.072Z,8.89
2016-04-04T04:44:43.731Z,8.77
2016-04-04T04:45:43.078Z,8.87
2016-04-04T04:46:43.080Z,8.91
2016-04-04T04:47:43.099Z,8.91
2016-04-04T04:48:43.086Z,8.91
2016-04-04T04:50:43.091Z,8.77
2016-04-04T04:51:43.125Z,8.86
2016-04-04T04:52:43.144Z,8.83
2016-04-04T04:53:43.099Z,8.86
2016-04-04T04:54:43.102Z,8.84
2016-04-04T04:55:43.104Z,8.79
2016-04-04T04:56:43.107Z,8.87
2016-04-04T04:57:43.298Z,8.94
2016-04-04T04:58:43.129Z,8.89
2016-04-04T04:59:43.115Z,8.84
2016-04-04T05:00:43.321Z,8.95
2016-04-04T05:01:43.527Z,8.89
2016-04-04T05:02:43.123Z,8.96
2016-04-04T05:03:43.143Z,8.94
2016-04-04T05:04:43.176Z,8.87
2016-04-04T05:05:43.366Z,8.95
2016-04-04T05:06:43.134Z,9.01
2016-04-04T05:07:43.121Z,8.99
2016-04-04T05:08:43.140Z,8.99
2016-04-04T05:09:43.345Z,8.99
2016-04-04T05:10:43.129Z,8.91
2016-04-04T05:11:43.163Z,9.04
2016-04-04T05:12:43.151Z,9.02
2016-04-04T05:13:43.169Z,8.98
2016-04-04T05:14:43.233Z,9.01
2016-04-04T05:15:43.190Z,9.05
2016-04-04T05:16:43.365Z,9.05
2016-04-04T05:17:43.164Z,9.1
2016-04-04T05:18:43.166Z,9.17
2016-04-04T05:19:43.389Z,9.13
2016-04-04T05:20:43.203Z,9.14
2016-04-04T05:21:43.565Z,9.11
2016-04-04T05:22:43.193Z,9.29
2016-04-04T05:23:43.180Z,9.23
2016-04-04T05:24:43.433Z,9.21
2016-04-04T05:25:43.201Z,9.24
2016-04-04T05:27:43.342Z,9.36
2016-04-04T05:28:43.177Z,9.29
2016-04-04T05:29:43.180Z,9.4
2016-04-04T05:30:43.402Z,9.48
2016-04-04T05:31:42.733Z,9.47
2016-04-04T05:32:43.204Z,9.48
2016-04-04T05:33:43.207Z,9.47
2016-04-04T05:34:42.943Z,9.56
2016-04-04T05:35:42.712Z,9.56
2016-04-04T05:36:43.434Z,9.72
2016-04-04T05:37:43.218Z,9.66
2016-04-04T05:38:57.518Z,9.81
2016-04-04T05:39:57.317Z,9.72
2016-04-04T05:40:43.429Z,9.76
2016-04-04T05:41:43.228Z,9.9
2016-04-04T05:42:43.231Z,9.99
2016-04-04T05:43:43.468Z,9.97
2016-04-04T05:44:43.361Z,9.96
2016-04-04T05:45:43.240Z,10.09
2016-04-04T05:46:43.289Z,10.2
2016-04-04T05:47:43.245Z,10.2
2016-04-04T05:48:43.248Z,10.22
2016-04-04T05:49:43.297Z,10.27
2016-04-04T05:50:43.284Z,10.42
2016-04-04T05:51:43.318Z,10.42
2016-04-04T05:52:43.524Z,10.44
2016-04-04T05:53:43.307Z,10.48
2016-04-04T05:54:43.264Z,10.63
2016-04-04T05:55:43.266Z,10.7
2016-04-04T05:56:43.596Z,10.73
2016-04-04T05:57:43.303Z,10.79
2016-04-04T05:58:43.494Z,10.85
2016-04-04T05:59:43.699Z,10.84
2016-04-04T06:00:43.545Z,10.84
2016-04-04T06:01:43.329Z,10.97
2016-04-04T06:02:43.301Z,10.96
2016-04-04T06:03:43.506Z,11
2016-04-04T06:04:43.368Z,10.99
2016-04-04T06:05:43.527Z,11.09
2016-04-04T06:06:43.343Z,10.99
2016-04-04T06:07:57.439Z,11.02
2016-04-04T06:08:43.801Z,11.06
2016-04-04T06:09:57.445Z,11.11
2016-04-04T06:10:43.353Z,11.17
2016-04-04T06:11:43.356Z,11.15
2016-04-04T06:12:43.359Z,11.19
2016-04-04T06:13:43.392Z,11.27
2016-04-04T06:14:43.380Z,11.19
2016-04-04T06:15:43.383Z,11.24
2016-04-04T06:16:43.385Z,11.32
2016-04-04T06:17:43.622Z,11.39
2016-04-04T06:18:43.406Z,11.29
2016-04-04T06:20:11.599Z,11.33
2016-04-04T06:20:57.911Z,11.36
2016-04-04T06:21:43.399Z,11.4
2016-04-04T06:22:43.636Z,11.4
2016-04-04T06:23:43.810Z,11.47
2016-04-04T06:24:43.422Z,11.47
2016-04-04T06:25:43.440Z,11.39
2016-04-04T06:26:43.427Z,11.54
2016-04-04T06:27:43.430Z,11.57
2016-04-04T06:28:43.432Z,11.55
2016-04-04T06:29:43.452Z,11.51
2016-04-04T06:30:43.454Z,11.61
2016-04-04T06:31:43.472Z,11.69
2016-04-04T06:32:43.662Z,11.62
2016-04-04T06:33:43.463Z,11.7
2016-04-04T06:35:43.467Z,11.72
2016-04-04T06:36:43.783Z,11.82
2016-04-04T06:37:43.504Z,11.8
2016-04-04T06:38:43.507Z,11.88
2016-04-04T06:39:43.493Z,11.94
2016-04-04T06:40:43.528Z,12.02
2016-04-04T06:41:43.718Z,12.12
2016-04-04T06:42:43.517Z,12.13
2016-04-04T06:43:43.567Z,12.19
2016-04-04T06:44:43.523Z,12.34
2016-04-04T06:45:43.526Z,12.34
2016-04-04T06:46:43.544Z,12.49
2016-04-04T06:47:43.562Z,12.53
2016-04-04T06:48:43.565Z,12.57
2016-04-04T06:49:43.020Z,12.62
2016-04-04T06:50:43.805Z,12.75
2016-04-04T06:51:43.979Z,12.83
2016-04-04T06:52:43.591Z,12.87
2016-04-04T06:53:43.594Z,12.96
2016-04-04T06:54:43.597Z,13.03
2016-04-04T06:55:43.802Z,13.08
2016-04-04T06:57:43.136Z,13.29
2016-04-04T06:58:43.623Z,13.38
2016-04-04T06:59:43.844Z,13.25
2016-04-04T07:00:43.649Z,13.38
2016-04-04T07:01:43.840Z,13.42
2016-04-04T07:02:57.748Z,13.44
2016-04-04T07:03:43.673Z,13.49
2016-04-04T07:04:43.362Z,13.49
2016-04-04T07:05:43.679Z,13.48
2016-04-04T07:06:43.196Z,13.46
2016-04-04T07:07:43.902Z,13.57
2016-04-04T07:08:43.920Z,13.64
2016-04-04T07:09:43.220Z,13.73
2016-04-04T07:10:43.722Z,13.79
2016-04-04T07:11:43.756Z,13.84
2016-04-04T07:12:43.744Z,13.79
2016-04-04T07:13:43.730Z,13.82
2016-04-04T07:14:43.734Z,13.87
2016-04-04T07:15:43.752Z,13.85
2016-04-04T07:16:43.754Z,13.87
2016-04-04T07:17:43.991Z,13.95
2016-04-04T07:18:44.010Z,13.91
2016-04-04T07:19:43.997Z,13.89
2016-04-04T07:20:43.999Z,13.99
2016-04-04T07:21:44.003Z,14.04
2016-04-04T07:22:43.833Z,14.02
2016-04-04T07:24:44.041Z,14.03
2016-04-04T07:25:43.825Z,14.04
2016-04-04T07:26:43.860Z,14.12
2016-04-04T07:27:43.847Z,14.07
2016-04-04T07:28:43.880Z,14.1
2016-04-04T07:29:43.851Z,14.18
2016-04-04T07:30:43.871Z,14.18
2016-04-04T07:31:43.889Z,14.27
2016-04-04T07:32:43.891Z,14.24
2016-04-04T07:33:43.909Z,14.28
2016-04-04T07:34:43.944Z,14.4
2016-04-04T07:35:43.914Z,14.4
2016-04-04T07:36:43.934Z,14.47
2016-04-04T07:37:43.982Z,14.58
2016-04-04T07:38:58.064Z,14.52
2016-04-04T07:39:44.004Z,14.68
2016-04-04T07:40:44.195Z,14.62
2016-04-04T07:41:43.993Z,14.73
2016-04-04T07:42:43.995Z,14.68
2016-04-04T07:43:43.999Z,14.77
2016-04-04T07:44:44.237Z,14.86
2016-04-04T07:45:44.020Z,14.81
2016-04-04T07:46:44.006Z,14.89
2016-04-04T07:47:44.259Z,14.91
2016-04-04T07:48:44.466Z,14.95
2016-04-04T07:49:43.922Z,15.06
2016-04-04T07:50:44.049Z,15.14
2016-04-04T07:51:44.270Z,15.1
2016-04-04T07:52:58.569Z,15.14
2016-04-04T07:53:44.073Z,15.2
2016-04-04T07:54:44.278Z,15.27
2016-04-04T07:55:44.093Z,15.29
2016-04-04T07:56:44.128Z,15.36
2016-04-04T07:57:44.318Z,15.31
2016-04-04T07:58:44.133Z,15.32
2016-04-04T07:59:44.354Z,15.39
2016-04-04T08:00:44.138Z,15.5
2016-04-04T08:01:44.156Z,15.46
2016-04-04T08:02:44.191Z,15.53
2016-04-04T08:03:44.162Z,15.53
2016-04-04T08:04:44.227Z,15.54
2016-04-04T08:05:44.418Z,15.56
2016-04-04T08:06:58.499Z,15.51
2016-04-04T08:07:44.220Z,15.59
2016-04-04T08:08:44.222Z,15.62
2016-04-04T08:09:44.256Z,15.68
2016-04-04T08:10:44.243Z,15.64
2016-04-04T08:11:47.246Z,15.67
2016-04-04T08:12:44.451Z,15.76
2016-04-04T08:13:44.267Z,15.75
2016-04-04T08:14:43.785Z,15.71
2016-04-04T08:15:44.522Z,15.78
2016-04-04T08:16:44.322Z,15.93
2016-04-04T08:17:44.309Z,15.89
2016-04-04T08:18:44.515Z,15.9
2016-04-04T08:19:44.642Z,15.94
2016-04-04T08:20:58.645Z,15.97
2016-04-04T08:21:44.555Z,16.04
2016-04-04T08:22:44.603Z,16.07
2016-04-04T08:23:44.403Z,16.01
2016-04-04T08:24:44.406Z,16.07
2016-04-04T08:25:44.378Z,16.15
2016-04-04T08:26:44.396Z,16.12
2016-04-04T08:27:44.414Z,16.09
2016-04-04T08:28:44.682Z,16.31
2016-04-04T08:29:44.436Z,16.42
2016-04-04T08:30:44.438Z,16.39
2016-04-04T08:31:44.457Z,16.43
2016-04-04T08:32:44.490Z,16.56
2016-04-04T08:33:44.467Z,16.48
2016-04-04T08:34:44.818Z,16.57
2016-04-04T08:35:44.465Z,16.6
2016-04-04T08:36:44.471Z,16.78
2016-04-04T08:37:44.461Z,16.71
2016-04-04T08:38:44.475Z,16.76
2016-04-04T08:39:44.754Z,16.81
2016-04-04T08:40:44.721Z,16.94
2016-04-04T08:41:44.486Z,16.96
2016-04-04T08:42:44.499Z,17
2016-04-04T08:43:44.500Z,17.01
2016-04-04T08:44:44.533Z,17.03
2016-04-04T08:45:44.566Z,17.18
2016-04-04T08:46:58.832Z,17.16
2016-04-04T08:47:44.551Z,17.18
2016-04-04T08:48:44.601Z,17.31
2016-04-04T08:49:45.149Z,17.33
2016-04-04T08:50:44.604Z,17.44
2016-04-04T08:51:44.606Z,17.48
2016-04-04T08:52:44.592Z,17.55
2016-04-04T08:53:44.610Z,17.58
2016-04-04T08:54:44.629Z,17.54
2016-04-04T08:55:44.631Z,17.58
2016-04-04T08:56:44.680Z,17.7
2016-04-04T08:57:44.666Z,17.78
2016-04-04T08:58:44.685Z,17.7
2016-04-04T08:59:44.891Z,17.79
2016-04-04T09:00:44.706Z,17.95
2016-04-04T09:01:44.958Z,17.99
2016-04-04T09:02:44.710Z,18
2016-04-04T09:03:44.730Z,18
2016-04-04T09:04:44.779Z,18.05
2016-04-04T09:05:44.813Z,18.08
2016-04-04T09:06:58.893Z,18.14
2016-04-04T09:07:44.990Z,18.21
2016-04-04T09:08:44.993Z,18.17
2016-04-04T09:09:45.011Z,18.35
2016-04-04T09:10:44.842Z,18.17
2016-04-04T09:11:45.079Z,18.3
2016-04-04T09:12:44.847Z,18.33
2016-04-04T09:13:44.850Z,18.36
2016-04-04T09:14:44.868Z,18.35
2016-04-04T09:15:44.871Z,18.37
2016-04-04T09:16:45.092Z,18.51
2016-04-04T09:17:44.907Z,18.51
2016-04-04T09:18:44.926Z,18.51
2016-04-04T09:19:59.022Z,18.57
2016-04-04T09:20:44.697Z,18.62
2016-04-04T09:21:44.950Z,18.58
2016-04-04T09:22:45.170Z,18.58
2016-04-04T09:23:45.002Z,18.65
2016-04-04T09:24:45.005Z,18.76
2016-04-04T09:25:45.008Z,18.75
2016-04-04T09:26:45.025Z,18.84
2016-04-04T09:27:59.138Z,18.8
2016-04-04T09:28:45.078Z,18.87
2016-04-04T09:29:45.268Z,18.85
2016-04-04T09:30:45.083Z,18.88
2016-04-04T09:31:45.336Z,18.92
2016-04-04T09:32:45.135Z,18.99
2016-04-04T09:33:45.138Z,18.92
2016-04-04T09:34:45.203Z,18.94
2016-04-04T09:35:45.190Z,19
2016-04-04T09:36:45.380Z,19.11
2016-04-04T09:37:45.196Z,19.1
2016-04-04T09:38:45.433Z,19.14
2016-04-04T09:39:59.513Z,19.16
2016-04-04T09:40:45.469Z,19.21
2016-04-04T09:41:59.534Z,19.21
2016-04-04T09:42:45.271Z,19.22
2016-04-04T09:43:46.774Z,19.25
2016-04-04T09:44:46.449Z,19.25
2016-04-04T09:45:46.577Z,19.33
2016-04-04T09:46:47.048Z,19.33
2016-04-04T09:47:46.081Z,19.32
2016-04-04T09:48:47.991Z,19.39
2016-04-04T09:49:47.791Z,19.46
2016-04-04T09:50:47.746Z,19.41
2016-04-04T09:51:45.608Z,19.39
2016-04-04T09:52:45.283Z,19.48
2016-04-04T09:53:47.378Z,19.48
2016-04-04T09:54:47.866Z,19.43
2016-04-04T09:55:46.885Z,19.46
2016-04-04T09:56:47.716Z,19.48
2016-04-04T09:57:47.406Z,19.54
2016-04-04T09:58:47.705Z,19.55
2016-04-04T09:59:47.395Z,19.55
2016-04-04T10:00:48.398Z,19.55
2016-04-04T10:01:45.526Z,19.63
2016-04-04T10:02:45.545Z,19.62
2016-04-04T10:03:45.547Z,19.61
2016-04-04T10:04:45.440Z,19.61
2016-04-04T10:05:45.802Z,19.68
2016-04-04T10:06:45.633Z,19.63
2016-04-04T10:07:45.621Z,19.61
2016-04-04T10:08:45.623Z,19.69
2016-04-04T10:09:45.646Z,19.69
2016-04-04T10:11:45.715Z,19.77
2016-04-04T10:12:45.701Z,19.8
2016-04-04T10:13:45.876Z,19.87
2016-04-04T10:14:45.737Z,19.78
2016-04-04T10:15:45.709Z,19.87
2016-04-04T10:16:45.931Z,19.98
2016-04-04T10:17:45.746Z,19.99
2016-04-04T10:18:45.779Z,19.87
2016-04-04T10:19:46.079Z,19.98
2016-04-04T10:20:45.988Z,19.98
2016-04-04T10:21:46.006Z,20.05
2016-04-04T10:22:45.353Z,20.1
2016-04-04T10:23:45.840Z,20.02
2016-04-04T10:24:45.858Z,20.1
2016-04-04T10:25:45.877Z,20.2
2016-04-04T10:26:45.895Z,20.02
2016-04-04T10:27:46.133Z,19.96
2016-04-04T10:28:45.463Z,19.98
2016-04-04T10:29:46.138Z,19.95
2016-04-04T10:30:45.968Z,19.99
2016-04-04T10:31:46.174Z,20.13
2016-04-04T10:32:45.973Z,20.08
2016-04-04T10:33:46.024Z,19.99
2016-04-04T10:34:46.027Z,19.99
2016-04-04T10:35:46.029Z,20.03
2016-04-04T10:36:46.046Z,19.87
2016-04-04T10:37:46.080Z,19.91
2016-04-04T10:38:46.301Z,19.84
2016-04-04T10:39:46.070Z,19.84
2016-04-04T10:40:46.105Z,19.76
2016-04-04T10:41:46.107Z,19.84
2016-04-04T10:42:46.110Z,19.83
2016-04-04T10:43:46.128Z,19.86
2016-04-04T10:44:46.146Z,19.78
2016-04-04T10:45:46.368Z,19.83
2016-04-04T10:46:46.168Z,19.95
2016-04-04T10:47:46.186Z,19.91
2016-04-04T10:48:46.189Z,19.91
2016-04-04T10:49:46.300Z,19.91
2016-04-04T10:50:46.287Z,19.99
2016-04-04T10:51:46.259Z,19.95
2016-04-04T10:52:46.262Z,20.03
2016-04-04T10:53:46.467Z,20.05
2016-04-04T10:54:46.283Z,20.06
2016-04-04T10:55:46.316Z,20.13
2016-04-04T10:56:46.319Z,20.13
2016-04-04T10:57:46.338Z,20.16
2016-04-04T10:58:46.341Z,20.24
2016-04-04T10:59:46.421Z,20.26
2016-04-04T11:00:46.361Z,20.23
2016-04-04T11:01:46.567Z,20.33
2016-04-04T11:02:46.586Z,20.33
2016-04-04T11:03:46.400Z,20.36
2016-04-04T11:04:46.732Z,20.42
2016-04-04T11:06:00.546Z,20.52
2016-04-04T11:07:00.550Z,20.64
2016-04-04T11:07:46.458Z,20.73
2016-04-04T11:08:46.487Z,20.77
2016-04-04T11:09:46.739Z,20.74
2016-04-04T11:10:46.554Z,20.77
2016-04-04T11:11:46.525Z,20.85
2016-04-04T11:12:46.840Z,20.87
2016-04-04T11:13:46.547Z,20.92
2016-04-04T11:14:46.581Z,20.95
2016-04-04T11:15:46.567Z,20.98
2016-04-04T11:16:46.633Z,20.95
2016-04-04T11:17:46.620Z,20.99
2016-04-04T11:18:46.654Z,21.03
2016-04-04T11:19:46.906Z,20.99
2016-04-04T11:20:46.659Z,21.09
2016-04-04T11:21:46.694Z,21.12
2016-04-04T11:22:46.915Z,20.99
2016-04-04T11:23:46.917Z,21.07
2016-04-04T11:24:46.717Z,21.04
2016-04-04T11:25:46.736Z,21.07
2016-04-04T11:26:46.753Z,21.09
2016-04-04T11:27:46.772Z,20.99
2016-04-04T11:28:47.134Z,21.1
2016-04-04T11:29:46.793Z,21.14
2016-04-04T11:30:46.811Z,21.14
2016-04-04T11:31:46.845Z,21.14
2016-04-04T11:32:46.848Z,21.17
2016-04-04T11:33:46.850Z,21.19
2016-04-04T11:34:46.759Z,21.17
2016-04-04T11:35:46.902Z,21.25
2016-04-04T11:36:46.936Z,21.16
2016-04-04T11:37:46.923Z,21.17
2016-04-04T11:38:46.932Z,21.14
2016-04-04T11:39:47.325Z,21.13
2016-04-04T11:40:46.953Z,21.16
2016-04-04T11:42:01.470Z,21.12
2016-04-04T11:42:46.848Z,21.13
2016-04-04T11:43:47.023Z,21.16
2016-04-04T11:44:47.041Z,21.1
2016-04-04T11:45:47.637Z,21.06
2016-04-04T11:46:47.046Z,21.01
2016-04-04T11:47:47.471Z,20.97
2016-04-04T11:49:47.366Z,21.01
2016-04-04T11:50:47.104Z,21.04
2016-04-04T11:51:47.122Z,21.03
2016-04-04T11:53:01.469Z,21.01
2016-04-04T11:53:47.174Z,20.99
2016-04-04T11:54:47.381Z,20.98
2016-04-04T11:55:47.196Z,20.94
2016-04-04T11:56:47.199Z,20.92
2016-04-04T11:58:01.311Z,20.94
2016-04-04T11:58:47.438Z,20.94
2016-04-04T11:59:47.254Z,20.94
2016-04-04T12:00:47.287Z,20.8
2016-04-04T12:01:47.493Z,20.82
2016-04-04T12:02:47.308Z,20.84
2016-04-04T12:03:47.310Z,20.76
2016-04-04T12:04:47.423Z,20.76
2016-04-04T12:05:47.331Z,20.74
2016-04-04T12:06:47.397Z,20.77
2016-04-04T12:07:47.368Z,20.73
2016-04-04T12:08:47.480Z,20.58
2016-04-04T12:09:47.421Z,20.51
2016-04-04T12:10:47.423Z,20.52
2016-04-04T12:11:47.426Z,20.52
2016-04-04T12:12:47.445Z,20.42
2016-04-04T12:13:47.682Z,20.39
2016-04-04T12:14:47.497Z,20.41
2016-04-04T12:15:47.500Z,20.32
2016-04-04T12:16:47.502Z,20.35
2016-04-04T12:17:47.505Z,20.35
2016-04-04T12:18:47.539Z,20.32
2016-04-04T12:19:47.635Z,20.35
2016-04-04T12:20:47.561Z,20.23
2016-04-04T12:21:47.594Z,20.33
2016-04-04T12:22:47.597Z,20.26
2016-04-04T12:23:47.615Z,20.31
2016-04-04T12:24:47.617Z,20.23
2016-04-04T12:25:47.636Z,20.28
2016-04-04T12:26:47.670Z,20.29
2016-04-04T12:27:47.688Z,20.29
2016-04-04T12:28:47.519Z,20.21
2016-04-04T12:29:47.709Z,20.31
2016-04-04T12:30:47.696Z,20.26
2016-04-04T12:32:01.824Z,20.24
2016-04-04T12:32:47.732Z,20.36
2016-04-04T12:33:47.798Z,20.33
2016-04-04T12:34:47.862Z,20.36
2016-04-04T12:35:47.771Z,20.36
2016-04-04T12:36:47.806Z,20.36
2016-04-04T12:37:47.809Z,20.33
2016-04-04T12:38:47.826Z,20.21
2016-04-04T12:39:48.440Z,20.38
2016-04-04T12:40:47.848Z,20.32
2016-04-04T12:41:48.054Z,20.36
2016-04-04T12:42:47.901Z,20.39
2016-04-04T12:43:47.887Z,20.33
2016-04-04T12:44:47.906Z,20.35
2016-04-04T12:45:48.111Z,20.41
2016-04-04T12:46:47.926Z,20.36
2016-04-04T12:47:47.945Z,20.42
2016-04-04T12:48:47.963Z,20.38
2016-04-04T12:49:48.263Z,20.41
2016-04-04T12:50:48.000Z,20.32
2016-04-04T12:51:48.064Z,20.36
2016-04-04T12:52:47.552Z,20.41
2016-04-04T12:53:48.038Z,20.43
2016-04-04T12:54:48.041Z,20.47
2016-04-04T12:55:48.075Z,20.41
2016-04-04T12:56:48.109Z,20.39
2016-04-04T12:57:48.113Z,20.38
2016-04-04T12:58:48.115Z,20.52
2016-04-04T12:59:48.118Z,20.59
2016-04-04T13:00:47.683Z,20.58
2016-04-04T13:01:48.374Z,20.52
2016-04-04T13:02:48.782Z,20.55
2016-04-04T13:04:02.285Z,20.52
2016-04-04T13:04:48.318Z,20.54
2016-04-04T13:05:48.212Z,20.58
2016-04-04T13:06:48.215Z,20.55
2016-04-04T13:07:47.482Z,20.61
2016-04-04T13:08:48.252Z,20.64
2016-04-04T13:09:48.457Z,20.62
2016-04-04T13:11:48.291Z,20.7
2016-04-04T13:12:48.731Z,20.76
2016-04-04T13:13:48.312Z,20.66
2016-04-04T13:14:48.345Z,20.76
2016-04-04T13:15:48.364Z,20.73
2016-04-04T13:16:48.398Z,20.79
2016-04-04T13:17:48.431Z,20.66